sensor_id;sensor_type;location;lat;lon;timestamp;P1;durP1;ratioP1;P2;durP2;ratioP2
8228;SDS011;4155;50.118;8.714;2022-10-16T00:01:37;6.97;;;2.80;;
8228;SDS011;4155;50.118;8.714;2022-10-16T00:04:05;3.50;;;3.20;;
8228;SDS011;4155;50.118;8.714;2022-10-16T00:06:33;3.67;;;3.37;;
8228;SDS011;4155;50.118;8.714;2022-10-16T00:09:00;5.17;;;3.03;;
8228;SDS011;4155;50.118;8.714;2022-10-16T00:11:29;3.50;;;3.20;;
8228;SDS011;4155;50.118;8.714;2022-10-16T00:14:00;5.10;;;3.10;;
8228;SDS011;4155;50.118;8.714;2022-10-16T00:16:29;3.57;;;3.27;;
8228;SDS011;4155;50.118;8.714;2022-10-16T00:18:58;3.80;;;3.40;;
8228;SDS011;4155;50.118;8.714;2022-10-16T00:21:26;5.40;;;3.30;;
8228;SDS011;4155;50.118;8.714;2022-10-16T00:23:56;7.10;;;3.90;;
8228;SDS011;4155;50.118;8.714;2022-10-16T00:26:26;4.53;;;3.13;;
8228;SDS011;4155;50.118;8.714;2022-10-16T00:28:56;4.13;;;3.40;;
8228;SDS011;4155;50.118;8.714;2022-10-16T00:31:23;3.10;;;2.77;;
8228;SDS011;4155;50.118;8.714;2022-10-16T00:33:51;4.13;;;3.20;;
8228;SDS011;4155;50.118;8.714;2022-10-16T00:36:21;5.83;;;3.40;;
8228;SDS011;4155;50.118;8.714;2022-10-16T00:38:50;11.30;;;3.03;;
8228;SDS011;4155;50.118;8.714;2022-10-16T00:41:21;3.43;;;2.90;;
8228;SDS011;4155;50.118;8.714;2022-10-16T00:43:50;3.90;;;3.00;;
8228;SDS011;4155;50.118;8.714;2022-10-16T00:46:20;4.40;;;3.80;;
8228;SDS011;4155;50.118;8.714;2022-10-16T00:48:51;4.90;;;3.00;;
8228;SDS011;4155;50.118;8.714;2022-10-16T00:51:25;3.80;;;2.77;;
8228;SDS011;4155;50.118;8.714;2022-10-16T00:53:57;3.20;;;2.90;;
8228;SDS011;4155;50.118;8.714;2022-10-16T00:56:26;5.03;;;3.60;;
8228;SDS011;4155;50.118;8.714;2022-10-16T00:58:53;2.53;;;2.33;;
8228;SDS011;4155;50.118;8.714;2022-10-16T01:01:21;3.03;;;2.50;;
8228;SDS011;4155;50.118;8.714;2022-10-16T01:03:49;3.37;;;2.83;;
8228;SDS011;4155;50.118;8.714;2022-10-16T01:06:19;2.60;;;2.23;;
8228;SDS011;4155;50.118;8.714;2022-10-16T01:09:04;2.93;;;2.40;;
8228;SDS011;4155;50.118;8.714;2022-10-16T01:11:39;5.07;;;2.73;;
8228;SDS011;4155;50.118;8.714;2022-10-16T01:14:14;5.10;;;2.90;;
8228;SDS011;4155;50.118;8.714;2022-10-16T01:16:49;2.60;;;2.40;;
8228;SDS011;4155;50.118;8.714;2022-10-16T01:19:26;2.33;;;2.13;;
8228;SDS011;4155;50.118;8.714;2022-10-16T01:22:06;2.63;;;2.43;;
8228;SDS011;4155;50.118;8.714;2022-10-16T01:24:39;2.17;;;2.07;;
8228;SDS011;4155;50.118;8.714;2022-10-16T01:27:12;2.23;;;2.00;;
8228;SDS011;4155;50.118;8.714;2022-10-16T01:29:43;4.20;;;2.23;;
8228;SDS011;4155;50.118;8.714;2022-10-16T01:32:18;4.60;;;2.10;;
8228;SDS011;4155;50.118;8.714;2022-10-16T01:34:49;8.13;;;2.30;;
8228;SDS011;4155;50.118;8.714;2022-10-16T01:37:22;2.00;;;1.90;;
8228;SDS011;4155;50.118;8.714;2022-10-16T01:39:57;3.10;;;2.40;;
8228;SDS011;4155;50.118;8.714;2022-10-16T01:42:30;2.13;;;1.93;;
8228;SDS011;4155;50.118;8.714;2022-10-16T01:45:04;4.50;;;1.80;;
8228;SDS011;4155;50.118;8.714;2022-10-16T01:47:34;3.03;;;2.37;;
8228;SDS011;4155;50.118;8.714;2022-10-16T01:50:03;2.57;;;2.47;;
8228;SDS011;4155;50.118;8.714;2022-10-16T01:52:33;2.93;;;2.10;;
8228;SDS011;4155;50.118;8.714;2022-10-16T01:55:04;2.57;;;1.27;;
8228;SDS011;4155;50.118;8.714;2022-10-16T01:57:37;1.73;;;1.63;;
8228;SDS011;4155;50.118;8.714;2022-10-16T02:00:10;10.73;;;2.37;;
8228;SDS011;4155;50.118;8.714;2022-10-16T02:02:41;1.73;;;1.63;;
8228;SDS011;4155;50.118;8.714;2022-10-16T02:05:14;2.23;;;1.80;;
8228;SDS011;4155;50.118;8.714;2022-10-16T02:07:47;4.07;;;1.67;;
8228;SDS011;4155;50.118;8.714;2022-10-16T02:10:15;1.60;;;1.50;;
8228;SDS011;4155;50.118;8.714;2022-10-16T02:12:45;1.87;;;1.53;;
8228;SDS011;4155;50.118;8.714;2022-10-16T02:15:17;6.03;;;1.93;;
8228;SDS011;4155;50.118;8.714;2022-10-16T02:17:45;1.83;;;1.73;;
8228;SDS011;4155;50.118;8.714;2022-10-16T02:20:12;1.50;;;1.40;;
8228;SDS011;4155;50.118;8.714;2022-10-16T02:22:41;1.27;;;1.27;;
8228;SDS011;4155;50.118;8.714;2022-10-16T02:25:14;2.40;;;1.63;;
8228;SDS011;4155;50.118;8.714;2022-10-16T02:27:49;2.40;;;1.70;;
8228;SDS011;4155;50.118;8.714;2022-10-16T02:30:24;1.43;;;1.30;;
8228;SDS011;4155;50.118;8.714;2022-10-16T02:32:55;3.13;;;1.53;;
8228;SDS011;4155;50.118;8.714;2022-10-16T02:35:25;1.30;;;1.20;;
8228;SDS011;4155;50.118;8.714;2022-10-16T02:37:54;2.07;;;1.37;;
8228;SDS011;4155;50.118;8.714;2022-10-16T02:40:24;1.50;;;1.40;;
8228;SDS011;4155;50.118;8.714;2022-10-16T02:42:54;5.60;;;1.67;;
8228;SDS011;4155;50.118;8.714;2022-10-16T02:45:22;1.03;;;1.00;;
8228;SDS011;4155;50.118;8.714;2022-10-16T02:47:51;1.60;;;1.50;;
8228;SDS011;4155;50.118;8.714;2022-10-16T02:50:18;6.33;;;1.20;;
8228;SDS011;4155;50.118;8.714;2022-10-16T02:52:46;1.93;;;1.17;;
8228;SDS011;4155;50.118;8.714;2022-10-16T02:55:14;1.50;;;1.40;;
8228;SDS011;4155;50.118;8.714;2022-10-16T02:57:41;1.00;;;1.00;;
8228;SDS011;4155;50.118;8.714;2022-10-16T03:00:11;2.23;;;1.07;;
8228;SDS011;4155;50.118;8.714;2022-10-16T03:02:41;1.17;;;1.07;;
8228;SDS011;4155;50.118;8.714;2022-10-16T03:05:09;2.60;;;1.10;;
8228;SDS011;4155;50.118;8.714;2022-10-16T03:07:37;1.37;;;1.20;;
8228;SDS011;4155;50.118;8.714;2022-10-16T03:10:05;1.23;;;1.13;;
8228;SDS011;4155;50.118;8.714;2022-10-16T03:12:34;15.00;;;1.60;;
8228;SDS011;4155;50.118;8.714;2022-10-16T03:15:02;1.70;;;1.60;;
8228;SDS011;4155;50.118;8.714;2022-10-16T03:17:32;1.40;;;1.30;;
8228;SDS011;4155;50.118;8.714;2022-10-16T03:20:00;3.13;;;1.20;;
8228;SDS011;4155;50.118;8.714;2022-10-16T03:22:28;1.77;;;1.30;;
8228;SDS011;4155;50.118;8.714;2022-10-16T03:24:56;1.37;;;1.20;;
8228;SDS011;4155;50.118;8.714;2022-10-16T03:27:23;3.60;;;1.43;;
8228;SDS011;4155;50.118;8.714;2022-10-16T03:29:51;1.40;;;1.30;;
8228;SDS011;4155;50.118;8.714;2022-10-16T03:32:19;1.47;;;1.37;;
8228;SDS011;4155;50.118;8.714;2022-10-16T03:34:49;1.60;;;1.50;;
8228;SDS011;4155;50.118;8.714;2022-10-16T03:37:16;2.50;;;1.27;;
8228;SDS011;4155;50.118;8.714;2022-10-16T03:39:44;1.60;;;1.50;;
8228;SDS011;4155;50.118;8.714;2022-10-16T03:42:12;1.67;;;1.20;;
8228;SDS011;4155;50.118;8.714;2022-10-16T03:44:39;1.37;;;1.27;;
8228;SDS011;4155;50.118;8.714;2022-10-16T03:47:07;4.30;;;1.13;;
8228;SDS011;4155;50.118;8.714;2022-10-16T03:49:34;1.20;;;1.10;;
8228;SDS011;4155;50.118;8.714;2022-10-16T03:52:03;1.83;;;1.20;;
8228;SDS011;4155;50.118;8.714;2022-10-16T03:54:31;1.40;;;1.30;;
8228;SDS011;4155;50.118;8.714;2022-10-16T03:56:59;2.60;;;1.07;;
8228;SDS011;4155;50.118;8.714;2022-10-16T03:59:26;1.40;;;1.30;;
8228;SDS011;4155;50.118;8.714;2022-10-16T04:01:54;1.17;;;1.07;;
8228;SDS011;4155;50.118;8.714;2022-10-16T04:04:22;1.10;;;1.10;;
8228;SDS011;4155;50.118;8.714;2022-10-16T04:06:51;1.30;;;1.20;;
8228;SDS011;4155;50.118;8.714;2022-10-16T04:09:20;2.50;;;1.13;;
8228;SDS011;4155;50.118;8.714;2022-10-16T04:11:47;2.50;;;1.30;;
8228;SDS011;4155;50.118;8.714;2022-10-16T04:14:15;1.23;;;1.17;;
8228;SDS011;4155;50.118;8.714;2022-10-16T04:16:42;1.20;;;1.10;;
8228;SDS011;4155;50.118;8.714;2022-10-16T04:19:10;1.93;;;1.20;;
8228;SDS011;4155;50.118;8.714;2022-10-16T04:21:39;1.20;;;1.20;;
8228;SDS011;4155;50.118;8.714;2022-10-16T04:24:07;1.57;;;1.20;;
8228;SDS011;4155;50.118;8.714;2022-10-16T04:26:36;1.23;;;1.17;;
8228;SDS011;4155;50.118;8.714;2022-10-16T04:29:03;1.20;;;1.10;;
8228;SDS011;4155;50.118;8.714;2022-10-16T04:31:32;1.23;;;1.13;;
8228;SDS011;4155;50.118;8.714;2022-10-16T04:33:59;1.57;;;1.40;;
8228;SDS011;4155;50.118;8.714;2022-10-16T04:36:27;1.50;;;1.40;;
8228;SDS011;4155;50.118;8.714;2022-10-16T04:38:55;1.30;;;1.20;;
8228;SDS011;4155;50.118;8.714;2022-10-16T04:41:22;1.40;;;1.30;;
8228;SDS011;4155;50.118;8.714;2022-10-16T04:43:51;3.10;;;1.33;;
8228;SDS011;4155;50.118;8.714;2022-10-16T04:46:19;2.40;;;1.47;;
8228;SDS011;4155;50.118;8.714;2022-10-16T04:48:48;1.83;;;1.33;;
8228;SDS011;4155;50.118;8.714;2022-10-16T04:51:15;1.50;;;1.40;;
8228;SDS011;4155;50.118;8.714;2022-10-16T04:53:44;1.23;;;1.13;;
8228;SDS011;4155;50.118;8.714;2022-10-16T04:56:12;1.20;;;1.10;;
8228;SDS011;4155;50.118;8.714;2022-10-16T04:58:41;1.20;;;1.10;;
8228;SDS011;4155;50.118;8.714;2022-10-16T05:01:10;2.23;;;1.50;;
8228;SDS011;4155;50.118;8.714;2022-10-16T05:03:37;2.63;;;1.37;;
8228;SDS011;4155;50.118;8.714;2022-10-16T05:06:05;1.37;;;1.27;;
8228;SDS011;4155;50.118;8.714;2022-10-16T05:08:33;1.43;;;1.30;;
8228;SDS011;4155;50.118;8.714;2022-10-16T05:11:01;1.77;;;1.33;;
8228;SDS011;4155;50.118;8.714;2022-10-16T05:13:29;1.30;;;1.20;;
8228;SDS011;4155;50.118;8.714;2022-10-16T05:15:57;1.33;;;1.20;;
8228;SDS011;4155;50.118;8.714;2022-10-16T05:18:25;1.47;;;1.30;;
8228;SDS011;4155;50.118;8.714;2022-10-16T05:20:53;1.40;;;1.30;;
8228;SDS011;4155;50.118;8.714;2022-10-16T05:23:21;2.00;;;1.43;;
8228;SDS011;4155;50.118;8.714;2022-10-16T05:25:52;12.23;;;1.70;;
8228;SDS011;4155;50.118;8.714;2022-10-16T05:28:20;2.07;;;1.47;;
8228;SDS011;4155;50.118;8.714;2022-10-16T05:30:48;1.60;;;1.50;;
8228;SDS011;4155;50.118;8.714;2022-10-16T05:33:16;2.10;;;1.50;;
8228;SDS011;4155;50.118;8.714;2022-10-16T05:35:45;1.67;;;1.57;;
8228;SDS011;4155;50.118;8.714;2022-10-16T05:38:13;1.60;;;1.50;;
8228;SDS011;4155;50.118;8.714;2022-10-16T05:40:41;1.60;;;1.50;;
8228;SDS011;4155;50.118;8.714;2022-10-16T05:43:08;2.43;;;1.60;;
8228;SDS011;4155;50.118;8.714;2022-10-16T05:45:36;1.50;;;1.40;;
8228;SDS011;4155;50.118;8.714;2022-10-16T05:48:04;1.83;;;1.20;;
8228;SDS011;4155;50.118;8.714;2022-10-16T05:50:32;1.63;;;1.40;;
8228;SDS011;4155;50.118;8.714;2022-10-16T05:53:01;1.93;;;1.13;;
8228;SDS011;4155;50.118;8.714;2022-10-16T05:55:29;1.70;;;1.60;;
8228;SDS011;4155;50.118;8.714;2022-10-16T05:57:57;1.60;;;1.50;;
8228;SDS011;4155;50.118;8.714;2022-10-16T06:00:25;1.20;;;1.10;;
8228;SDS011;4155;50.118;8.714;2022-10-16T06:02:52;1.67;;;1.20;;
8228;SDS011;4155;50.118;8.714;2022-10-16T06:05:20;1.40;;;1.30;;
8228;SDS011;4155;50.118;8.714;2022-10-16T06:07:48;1.30;;;1.10;;
8228;SDS011;4155;50.118;8.714;2022-10-16T06:10:17;1.57;;;1.47;;
8228;SDS011;4155;50.118;8.714;2022-10-16T06:12:44;1.23;;;1.13;;
8228;SDS011;4155;50.118;8.714;2022-10-16T06:15:12;1.40;;;1.30;;
8228;SDS011;4155;50.118;8.714;2022-10-16T06:17:40;1.50;;;1.40;;
8228;SDS011;4155;50.118;8.714;2022-10-16T06:20:08;4.53;;;1.50;;
8228;SDS011;4155;50.118;8.714;2022-10-16T06:22:36;1.50;;;1.40;;
8228;SDS011;4155;50.118;8.714;2022-10-16T06:25:04;1.63;;;1.47;;
8228;SDS011;4155;50.118;8.714;2022-10-16T06:27:34;1.80;;;1.70;;
8228;SDS011;4155;50.118;8.714;2022-10-16T06:30:02;3.10;;;1.20;;
8228;SDS011;4155;50.118;8.714;2022-10-16T06:32:30;1.73;;;1.50;;
8228;SDS011;4155;50.118;8.714;2022-10-16T06:34:58;2.60;;;1.83;;
8228;SDS011;4155;50.118;8.714;2022-10-16T06:37:26;1.80;;;1.70;;
8228;SDS011;4155;50.118;8.714;2022-10-16T06:39:54;3.90;;;1.60;;
8228;SDS011;4155;50.118;8.714;2022-10-16T06:42:22;1.53;;;1.40;;
8228;SDS011;4155;50.118;8.714;2022-10-16T06:44:51;3.37;;;2.40;;
8228;SDS011;4155;50.118;8.714;2022-10-16T06:47:19;2.47;;;2.00;;
8228;SDS011;4155;50.118;8.714;2022-10-16T06:49:47;3.20;;;2.40;;
8228;SDS011;4155;50.118;8.714;2022-10-16T06:52:19;4.50;;;3.17;;
8228;SDS011;4155;50.118;8.714;2022-10-16T06:54:47;3.10;;;2.40;;
8228;SDS011;4155;50.118;8.714;2022-10-16T06:57:14;3.77;;;2.20;;
8228;SDS011;4155;50.118;8.714;2022-10-16T06:59:42;3.00;;;2.70;;
8228;SDS011;4155;50.118;8.714;2022-10-16T07:02:13;5.10;;;3.23;;
8228;SDS011;4155;50.118;8.714;2022-10-16T07:04:41;7.10;;;3.70;;
8228;SDS011;4155;50.118;8.714;2022-10-16T07:07:09;3.43;;;3.10;;
8228;SDS011;4155;50.118;8.714;2022-10-16T07:09:37;7.10;;;4.00;;
8228;SDS011;4155;50.118;8.714;2022-10-16T07:12:04;7.53;;;5.80;;
8228;SDS011;4155;50.118;8.714;2022-10-16T07:14:32;12.73;;;6.80;;
8228;SDS011;4155;50.118;8.714;2022-10-16T07:16:59;4.93;;;4.07;;
8228;SDS011;4155;50.118;8.714;2022-10-16T07:19:28;9.80;;;4.00;;
8228;SDS011;4155;50.118;8.714;2022-10-16T07:21:59;4.93;;;3.67;;
8228;SDS011;4155;50.118;8.714;2022-10-16T07:24:27;7.73;;;4.63;;
8228;SDS011;4155;50.118;8.714;2022-10-16T07:26:57;4.43;;;3.87;;
8228;SDS011;4155;50.118;8.714;2022-10-16T07:29:25;8.57;;;3.77;;
8228;SDS011;4155;50.118;8.714;2022-10-16T07:31:53;5.00;;;4.00;;
8228;SDS011;4155;50.118;8.714;2022-10-16T07:34:21;7.10;;;4.10;;
8228;SDS011;4155;50.118;8.714;2022-10-16T07:36:50;5.10;;;3.67;;
8228;SDS011;4155;50.118;8.714;2022-10-16T07:39:18;5.10;;;3.17;;
8228;SDS011;4155;50.118;8.714;2022-10-16T07:41:46;8.33;;;4.73;;
8228;SDS011;4155;50.118;8.714;2022-10-16T07:44:15;6.20;;;3.40;;
8228;SDS011;4155;50.118;8.714;2022-10-16T07:46:42;3.60;;;3.30;;
8228;SDS011;4155;50.118;8.714;2022-10-16T07:49:10;3.33;;;2.90;;
8228;SDS011;4155;50.118;8.714;2022-10-16T07:51:37;2.40;;;2.20;;
8228;SDS011;4155;50.118;8.714;2022-10-16T07:54:07;3.30;;;2.50;;
8228;SDS011;4155;50.118;8.714;2022-10-16T07:56:35;3.37;;;2.60;;
8228;SDS011;4155;50.118;8.714;2022-10-16T07:59:08;10.53;;;2.90;;
8228;SDS011;4155;50.118;8.714;2022-10-16T08:01:36;5.23;;;3.10;;
8228;SDS011;4155;50.118;8.714;2022-10-16T08:04:03;6.60;;;3.50;;
8228;SDS011;4155;50.118;8.714;2022-10-16T08:06:34;10.33;;;3.63;;
8228;SDS011;4155;50.118;8.714;2022-10-16T08:09:03;2.27;;;2.07;;
8228;SDS011;4155;50.118;8.714;2022-10-16T08:11:33;3.23;;;2.30;;
8228;SDS011;4155;50.118;8.714;2022-10-16T08:14:00;3.00;;;2.50;;
8228;SDS011;4155;50.118;8.714;2022-10-16T08:16:28;2.80;;;2.40;;
8228;SDS011;4155;50.118;8.714;2022-10-16T08:18:56;5.53;;;3.03;;
8228;SDS011;4155;50.118;8.714;2022-10-16T08:21:23;6.20;;;3.07;;
8228;SDS011;4155;50.118;8.714;2022-10-16T08:23:52;4.77;;;2.83;;
8228;SDS011;4155;50.118;8.714;2022-10-16T08:26:24;3.63;;;2.80;;
8228;SDS011;4155;50.118;8.714;2022-10-16T08:28:54;3.07;;;2.60;;
8228;SDS011;4155;50.118;8.714;2022-10-16T08:31:22;4.77;;;3.20;;
8228;SDS011;4155;50.118;8.714;2022-10-16T08:33:50;3.63;;;2.80;;
8228;SDS011;4155;50.118;8.714;2022-10-16T08:36:19;4.00;;;3.50;;
8228;SDS011;4155;50.118;8.714;2022-10-16T08:38:47;3.67;;;3.33;;
8228;SDS011;4155;50.118;8.714;2022-10-16T08:41:19;3.60;;;3.30;;
8228;SDS011;4155;50.118;8.714;2022-10-16T08:43:58;6.53;;;4.37;;
8228;SDS011;4155;50.118;8.714;2022-10-16T08:46:35;5.73;;;3.97;;
8228;SDS011;4155;50.118;8.714;2022-10-16T08:49:16;6.80;;;4.97;;
8228;SDS011;4155;50.118;8.714;2022-10-16T08:51:44;5.60;;;4.70;;
8228;SDS011;4155;50.118;8.714;2022-10-16T08:54:21;5.00;;;4.50;;
8228;SDS011;4155;50.118;8.714;2022-10-16T08:56:55;6.90;;;3.90;;
8228;SDS011;4155;50.118;8.714;2022-10-16T08:59:26;5.80;;;4.60;;
8228;SDS011;4155;50.118;8.714;2022-10-16T09:01:54;9.10;;;6.43;;
8228;SDS011;4155;50.118;8.714;2022-10-16T09:04:38;6.60;;;5.90;;
8228;SDS011;4155;50.118;8.714;2022-10-16T09:07:23;7.83;;;4.73;;
8228;SDS011;4155;50.118;8.714;2022-10-16T09:10:01;5.50;;;4.73;;
8228;SDS011;4155;50.118;8.714;2022-10-16T09:12:40;7.57;;;5.07;;
8228;SDS011;4155;50.118;8.714;2022-10-16T09:15:20;4.57;;;3.67;;
8228;SDS011;4155;50.118;8.714;2022-10-16T09:17:55;6.33;;;3.83;;
8228;SDS011;4155;50.118;8.714;2022-10-16T09:20:30;4.47;;;4.07;;
8228;SDS011;4155;50.118;8.714;2022-10-16T09:23:12;5.07;;;4.07;;
8228;SDS011;4155;50.118;8.714;2022-10-16T09:25:43;5.03;;;4.50;;
8228;SDS011;4155;50.118;8.714;2022-10-16T09:28:13;4.30;;;3.87;;
8228;SDS011;4155;50.118;8.714;2022-10-16T09:30:43;4.43;;;3.90;;
8228;SDS011;4155;50.118;8.714;2022-10-16T09:33:12;5.00;;;3.93;;
8228;SDS011;4155;50.118;8.714;2022-10-16T09:35:42;6.00;;;4.53;;
8228;SDS011;4155;50.118;8.714;2022-10-16T09:38:23;5.80;;;4.37;;
8228;SDS011;4155;50.118;8.714;2022-10-16T09:40:53;9.73;;;5.33;;
8228;SDS011;4155;50.118;8.714;2022-10-16T09:43:29;7.57;;;5.67;;
8228;SDS011;4155;50.118;8.714;2022-10-16T09:46:04;9.53;;;5.93;;
8228;SDS011;4155;50.118;8.714;2022-10-16T09:48:36;9.70;;;6.30;;
8228;SDS011;4155;50.118;8.714;2022-10-16T09:51:13;9.30;;;8.03;;
8228;SDS011;4155;50.118;8.714;2022-10-16T09:53:46;12.73;;;8.23;;
8228;SDS011;4155;50.118;8.714;2022-10-16T09:56:20;12.43;;;7.90;;
8228;SDS011;4155;50.118;8.714;2022-10-16T09:58:49;13.20;;;8.70;;
8228;SDS011;4155;50.118;8.714;2022-10-16T10:01:20;11.47;;;7.70;;
8228;SDS011;4155;50.118;8.714;2022-10-16T10:03:51;11.90;;;7.30;;
8228;SDS011;4155;50.118;8.714;2022-10-16T10:06:28;12.80;;;6.80;;
8228;SDS011;4155;50.118;8.714;2022-10-16T10:08:58;7.70;;;5.53;;
8228;SDS011;4155;50.118;8.714;2022-10-16T10:11:39;7.93;;;6.50;;
8228;SDS011;4155;50.118;8.714;2022-10-16T10:14:12;9.03;;;5.90;;
8228;SDS011;4155;50.118;8.714;2022-10-16T10:16:46;6.47;;;5.33;;
8228;SDS011;4155;50.118;8.714;2022-10-16T10:19:14;6.00;;;5.40;;
8228;SDS011;4155;50.118;8.714;2022-10-16T10:21:43;5.50;;;4.93;;
8228;SDS011;4155;50.118;8.714;2022-10-16T10:24:12;14.53;;;6.10;;
8228;SDS011;4155;50.118;8.714;2022-10-16T10:26:41;7.27;;;5.03;;
8228;SDS011;4155;50.118;8.714;2022-10-16T10:29:17;9.80;;;4.90;;
8228;SDS011;4155;50.118;8.714;2022-10-16T10:31:56;5.37;;;4.50;;
8228;SDS011;4155;50.118;8.714;2022-10-16T10:34:40;6.93;;;4.50;;
8228;SDS011;4155;50.118;8.714;2022-10-16T10:37:30;5.40;;;4.47;;
8228;SDS011;4155;50.118;8.714;2022-10-16T10:40:11;6.87;;;4.27;;
8228;SDS011;4155;50.118;8.714;2022-10-16T10:42:51;5.03;;;4.03;;
8228;SDS011;4155;50.118;8.714;2022-10-16T10:45:26;3.63;;;3.33;;
8228;SDS011;4155;50.118;8.714;2022-10-16T10:48:05;4.27;;;3.17;;
8228;SDS011;4155;50.118;8.714;2022-10-16T10:50:45;2.70;;;2.50;;
8228;SDS011;4155;50.118;8.714;2022-10-16T10:53:21;3.50;;;3.03;;
8228;SDS011;4155;50.118;8.714;2022-10-16T10:56:02;4.07;;;3.47;;
8228;SDS011;4155;50.118;8.714;2022-10-16T11:01:39;4.10;;;3.47;;
8228;SDS011;4155;50.118;8.714;2022-10-16T11:04:23;5.30;;;3.70;;
8228;SDS011;4155;50.118;8.714;2022-10-16T11:07:07;6.63;;;4.90;;
8228;SDS011;4155;50.118;8.714;2022-10-16T11:09:41;6.67;;;4.53;;
8228;SDS011;4155;50.118;8.714;2022-10-16T11:12:14;5.60;;;4.57;;
8228;SDS011;4155;50.118;8.714;2022-10-16T11:14:46;5.23;;;4.30;;
8228;SDS011;4155;50.118;8.714;2022-10-16T11:17:23;5.40;;;4.90;;
8228;SDS011;4155;50.118;8.714;2022-10-16T11:19:57;5.97;;;5.10;;
8228;SDS011;4155;50.118;8.714;2022-10-16T11:22:30;4.70;;;4.30;;
8228;SDS011;4155;50.118;8.714;2022-10-16T11:25:04;5.90;;;5.30;;
8228;SDS011;4155;50.118;8.714;2022-10-16T11:27:41;4.43;;;4.00;;
8228;SDS011;4155;50.118;8.714;2022-10-16T11:30:14;4.90;;;4.50;;
8228;SDS011;4155;50.118;8.714;2022-10-16T11:32:50;5.47;;;4.97;;
8228;SDS011;4155;50.118;8.714;2022-10-16T11:35:28;7.70;;;5.60;;
8228;SDS011;4155;50.118;8.714;2022-10-16T11:38:07;7.20;;;5.47;;
8228;SDS011;4155;50.118;8.714;2022-10-16T11:40:42;6.77;;;5.27;;
8228;SDS011;4155;50.118;8.714;2022-10-16T11:43:14;7.90;;;5.10;;
8228;SDS011;4155;50.118;8.714;2022-10-16T11:45:49;5.30;;;4.70;;
8228;SDS011;4155;50.118;8.714;2022-10-16T11:48:22;5.30;;;4.80;;
8228;SDS011;4155;50.118;8.714;2022-10-16T11:50:56;5.60;;;4.70;;
8228;SDS011;4155;50.118;8.714;2022-10-16T11:53:35;5.10;;;4.60;;
8228;SDS011;4155;50.118;8.714;2022-10-16T11:56:11;4.23;;;3.83;;
8228;SDS011;4155;50.118;8.714;2022-10-16T11:58:41;4.40;;;4.00;;
8228;SDS011;4155;50.118;8.714;2022-10-16T12:01:19;4.00;;;3.60;;
8228;SDS011;4155;50.118;8.714;2022-10-16T12:04:06;4.40;;;3.50;;
8228;SDS011;4155;50.118;8.714;2022-10-16T12:06:48;3.93;;;3.60;;
8228;SDS011;4155;50.118;8.714;2022-10-16T12:09:21;3.70;;;3.40;;
8228;SDS011;4155;50.118;8.714;2022-10-16T12:11:53;4.87;;;3.27;;
8228;SDS011;4155;50.118;8.714;2022-10-16T12:14:33;3.63;;;2.87;;
8228;SDS011;4155;50.118;8.714;2022-10-16T12:17:23;3.70;;;3.30;;
8228;SDS011;4155;50.118;8.714;2022-10-16T12:20:00;2.80;;;2.60;;
8228;SDS011;4155;50.118;8.714;2022-10-16T12:22:48;2.97;;;2.70;;
8228;SDS011;4155;50.118;8.714;2022-10-16T12:25:19;4.33;;;3.07;;
8228;SDS011;4155;50.118;8.714;2022-10-16T12:27:53;3.20;;;3.00;;
8228;SDS011;4155;50.118;8.714;2022-10-16T12:30:23;2.40;;;2.20;;
8228;SDS011;4155;50.118;8.714;2022-10-16T12:32:58;2.47;;;2.27;;
8228;SDS011;4155;50.118;8.714;2022-10-16T12:35:28;3.50;;;2.50;;
8228;SDS011;4155;50.118;8.714;2022-10-16T12:38:08;2.33;;;2.13;;
8228;SDS011;4155;50.118;8.714;2022-10-16T12:40:43;4.90;;;2.30;;
8228;SDS011;4155;50.118;8.714;2022-10-16T12:43:24;3.67;;;2.40;;
8228;SDS011;4155;50.118;8.714;2022-10-16T12:46:02;33.57;;;7.87;;
8228;SDS011;4155;50.118;8.714;2022-10-16T12:48:32;6.43;;;3.80;;
8228;SDS011;4155;50.118;8.714;2022-10-16T12:51:21;22.63;;;13.23;;
8228;SDS011;4155;50.118;8.714;2022-10-16T12:54:02;3.03;;;2.73;;
8228;SDS011;4155;50.118;8.714;2022-10-16T12:56:35;4.13;;;3.57;;
8228;SDS011;4155;50.118;8.714;2022-10-16T12:59:12;4.83;;;2.90;;
8228;SDS011;4155;50.118;8.714;2022-10-16T13:01:53;2.20;;;2.10;;
8228;SDS011;4155;50.118;8.714;2022-10-16T13:04:32;3.80;;;1.93;;
8228;SDS011;4155;50.118;8.714;2022-10-16T13:07:27;2.23;;;2.00;;
8228;SDS011;4155;50.118;8.714;2022-10-16T13:10:14;2.93;;;2.67;;
8228;SDS011;4155;50.118;8.714;2022-10-16T13:12:57;2.03;;;1.87;;
8228;SDS011;4155;50.118;8.714;2022-10-16T13:15:41;2.47;;;2.20;;
8228;SDS011;4155;50.118;8.714;2022-10-16T13:18:22;2.33;;;2.13;;
8228;SDS011;4155;50.118;8.714;2022-10-16T13:21:00;2.17;;;2.07;;
8228;SDS011;4155;50.118;8.714;2022-10-16T13:23:38;2.70;;;2.50;;
8228;SDS011;4155;50.118;8.714;2022-10-16T13:26:19;2.33;;;2.00;;
8228;SDS011;4155;50.118;8.714;2022-10-16T13:28:57;2.60;;;1.87;;
8228;SDS011;4155;50.118;8.714;2022-10-16T13:31:26;2.03;;;1.93;;
8228;SDS011;4155;50.118;8.714;2022-10-16T13:33:55;3.90;;;2.37;;
8228;SDS011;4155;50.118;8.714;2022-10-16T13:36:26;2.63;;;2.00;;
8228;SDS011;4155;50.118;8.714;2022-10-16T13:39:06;3.73;;;2.27;;
8228;SDS011;4155;50.118;8.714;2022-10-16T13:41:40;2.73;;;2.53;;
8228;SDS011;4155;50.118;8.714;2022-10-16T13:44:11;3.13;;;2.80;;
8228;SDS011;4155;50.118;8.714;2022-10-16T13:46:42;1.90;;;1.80;;
8228;SDS011;4155;50.118;8.714;2022-10-16T13:49:13;2.57;;;2.30;;
8228;SDS011;4155;50.118;8.714;2022-10-16T13:51:53;2.20;;;2.07;;
8228;SDS011;4155;50.118;8.714;2022-10-16T13:54:22;1.77;;;1.67;;
8228;SDS011;4155;50.118;8.714;2022-10-16T13:56:51;1.67;;;1.57;;
8228;SDS011;4155;50.118;8.714;2022-10-16T13:59:35;4.20;;;1.90;;
8228;SDS011;4155;50.118;8.714;2022-10-16T14:02:05;2.10;;;2.00;;
8228;SDS011;4155;50.118;8.714;2022-10-16T14:04:44;1.73;;;1.63;;
8228;SDS011;4155;50.118;8.714;2022-10-16T14:07:13;2.13;;;1.93;;
8228;SDS011;4155;50.118;8.714;2022-10-16T14:09:47;8.10;;;1.87;;
8228;SDS011;4155;50.118;8.714;2022-10-16T14:12:18;3.70;;;1.70;;
8228;SDS011;4155;50.118;8.714;2022-10-16T14:14:51;1.20;;;1.20;;
8228;SDS011;4155;50.118;8.714;2022-10-16T14:17:22;3.03;;;1.67;;
8228;SDS011;4155;50.118;8.714;2022-10-16T14:19:52;2.00;;;1.90;;
8228;SDS011;4155;50.118;8.714;2022-10-16T14:22:29;3.70;;;1.97;;
8228;SDS011;4155;50.118;8.714;2022-10-16T14:24:59;2.13;;;1.93;;
8228;SDS011;4155;50.118;8.714;2022-10-16T14:27:30;1.60;;;1.50;;
8228;SDS011;4155;50.118;8.714;2022-10-16T14:30:11;2.17;;;2.00;;
8228;SDS011;4155;50.118;8.714;2022-10-16T14:32:41;3.13;;;1.80;;
8228;SDS011;4155;50.118;8.714;2022-10-16T14:35:24;2.50;;;1.77;;
8228;SDS011;4155;50.118;8.714;2022-10-16T14:37:53;1.67;;;1.57;;
8228;SDS011;4155;50.118;8.714;2022-10-16T14:40:23;6.93;;;1.80;;
8228;SDS011;4155;50.118;8.714;2022-10-16T14:42:53;1.60;;;1.50;;
8228;SDS011;4155;50.118;8.714;2022-10-16T14:45:21;1.87;;;1.77;;
8228;SDS011;4155;50.118;8.714;2022-10-16T14:47:52;1.40;;;1.30;;
8228;SDS011;4155;50.118;8.714;2022-10-16T14:50:22;1.87;;;1.73;;
8228;SDS011;4155;50.118;8.714;2022-10-16T14:52:50;1.93;;;1.73;;
8228;SDS011;4155;50.118;8.714;2022-10-16T14:55:18;2.30;;;2.10;;
8228;SDS011;4155;50.118;8.714;2022-10-16T14:57:46;2.30;;;1.73;;
8228;SDS011;4155;50.118;8.714;2022-10-16T15:00:18;1.60;;;1.50;;
8228;SDS011;4155;50.118;8.714;2022-10-16T15:02:48;2.17;;;1.97;;
8228;SDS011;4155;50.118;8.714;2022-10-16T15:05:17;1.80;;;1.70;;
8228;SDS011;4155;50.118;8.714;2022-10-16T15:07:46;1.53;;;1.43;;
8228;SDS011;4155;50.118;8.714;2022-10-16T15:10:15;1.87;;;1.77;;
8228;SDS011;4155;50.118;8.714;2022-10-16T15:12:43;2.67;;;1.90;;
8228;SDS011;4155;50.118;8.714;2022-10-16T15:15:20;2.80;;;2.20;;
8228;SDS011;4155;50.118;8.714;2022-10-16T15:17:52;2.17;;;2.00;;
8228;SDS011;4155;50.118;8.714;2022-10-16T15:20:23;2.00;;;1.90;;
8228;SDS011;4155;50.118;8.714;2022-10-16T15:22:51;1.70;;;1.60;;
8228;SDS011;4155;50.118;8.714;2022-10-16T15:25:26;2.00;;;1.90;;
8228;SDS011;4155;50.118;8.714;2022-10-16T15:27:57;2.00;;;1.80;;
8228;SDS011;4155;50.118;8.714;2022-10-16T15:30:26;2.30;;;2.10;;
8228;SDS011;4155;50.118;8.714;2022-10-16T15:32:54;2.67;;;1.73;;
8228;SDS011;4155;50.118;8.714;2022-10-16T15:35:22;1.83;;;1.73;;
8228;SDS011;4155;50.118;8.714;2022-10-16T15:37:50;1.97;;;1.87;;
8228;SDS011;4155;50.118;8.714;2022-10-16T15:40:18;2.23;;;2.03;;
8228;SDS011;4155;50.118;8.714;2022-10-16T15:42:47;2.00;;;1.90;;
8228;SDS011;4155;50.118;8.714;2022-10-16T15:45:15;2.40;;;2.03;;